In Rescue
 
Open Full Screen Window  High Contrast Mode
September 18, 2020 9:40 PM EDT
Weather Information
Wind Direction
  ---
Wind Speed
  00 kt (0 mph)
Wind Gust
  00 kt (0 mph)
Altimeter
30.37 in
Visibility
10 SM
Temperature
03° C
37° F
Dewpoint
01° C
34° F
Humidity
87%
Sky Condition
Clear
VFR

METAR KCFS 190140Z AUTO 00000KT 10SM CLR 03/01 A3037 RMK AO2 T00330008

FAA Disclaimer: The data displayed is for advisory purposes only and is not to be used for flight planning or operations.